GFA213 OBBI-OKKK
Flight info
| Callsign | GFA213 |
|---|---|
| Flight time | 0h 51m |
| Altitude | 24000 |
| Route | BHR345/30R DCT BHR A453 DEBTI DEBTI1G |
| Aircraft | A320/M-SDE3FGHIRWY/LB1 |
Departure
| Time | 2026-05-04 16:30 |
|---|---|
| Airport | Bahrain International Airport (OBBI) |
Arrival
| Time | 2026-05-04 17:22 |
|---|---|
| Airport | Kuwait International Airport (OKKK) |
| Time | Latitude | Longitude | Altitude | Speed | Heading |
|---|---|---|---|---|---|
| 2026-05-04 15:51 | 26.26687 | 50.63296 | 15 ft | 0 kts | 210° |
| 2026-05-04 16:04 | 26.26688 | 50.63296 | 15 ft | 0 kts | 210° |
| 2026-05-04 16:19 | 26.26748 | 50.63331 | 18 ft | 4 kts | 192° |
| 2026-05-04 16:19 | 26.26784 | 50.63321 | 16 ft | 1 kts | 122° |
| 2026-05-04 16:20 | 26.26785 | 50.63320 | 16 ft | 3 kts | 122° |
| 2026-05-04 16:22 | 26.26785 | 50.63319 | 16 ft | 0 kts | 122° |
| 2026-05-04 16:24 | 26.26816 | 50.63383 | 15 ft | 5 kts | 37° |
| 2026-05-04 16:25 | 26.26810 | 50.63447 | 14 ft | 11 kts | 104° |
| 2026-05-04 16:26 | 26.26388 | 50.64210 | 13 ft | 35 kts | 123° |
| 2026-05-04 16:26 | 26.26004 | 50.64887 | 17 ft | 22 kts | 108° |
| 2026-05-04 16:27 | 26.26020 | 50.64938 | 15 ft | 0 kts | 42° |
| 2026-05-04 16:28 | 26.26158 | 50.64970 | 16 ft | 5 kts | 300° |
| 2026-05-04 16:28 | 26.26159 | 50.64969 | 16 ft | 0 kts | 302° |
| 2026-05-04 16:29 | 26.26772 | 50.63908 | 14 ft | 143 kts | 302° |
| 2026-05-04 16:30 | 26.28669 | 50.60706 | 1527 ft | 183 kts | 306° |
| 2026-05-04 16:31 | 26.30770 | 50.58739 | 2035 ft | 225 kts | 345° |
| 2026-05-04 16:31 | 26.35820 | 50.57370 | 3760 ft | 259 kts | 348° |
| 2026-05-04 16:32 | 26.41117 | 50.56033 | 5809 ft | 263 kts | 346° |
| 2026-05-04 16:33 | 26.44724 | 50.55106 | 7462 ft | 269 kts | 345° |
| 2026-05-04 16:33 | 26.48409 | 50.54155 | 9132 ft | 275 kts | 344° |
| 2026-05-04 16:34 | 26.51546 | 50.53344 | 10327 ft | 287 kts | 343° |
| 2026-05-04 16:34 | 26.53573 | 50.52815 | 10577 ft | 311 kts | 344° |
| 2026-05-04 16:35 | 26.60914 | 50.50927 | 12707 ft | 333 kts | 344° |
| 2026-05-04 16:35 | 26.67065 | 50.49354 | 14510 ft | 345 kts | 344° |
| 2026-05-04 16:36 | 26.69357 | 50.48537 | 15109 ft | 347 kts | 333° |
| 2026-05-04 16:36 | 26.73279 | 50.45399 | 16319 ft | 352 kts | 314° |
| 2026-05-04 16:37 | 26.76877 | 50.41583 | 17121 ft | 360 kts | 314° |
| 2026-05-04 16:37 | 26.78685 | 50.39670 | 17763 ft | 364 kts | 314° |
| 2026-05-04 16:37 | 26.82406 | 50.35736 | 18892 ft | 372 kts | 314° |
| 2026-05-04 16:38 | 26.86192 | 50.31726 | 20053 ft | 377 kts | 314° |
| 2026-05-04 16:39 | 26.91969 | 50.25584 | 21823 ft | 386 kts | 313° |
| 2026-05-04 16:39 | 26.95885 | 50.21421 | 23020 ft | 391 kts | 313° |
| 2026-05-04 16:40 | 26.99861 | 50.17197 | 23744 ft | 395 kts | 313° |
| 2026-05-04 16:40 | 27.03791 | 50.13039 | 23799 ft | 381 kts | 313° |
| 2026-05-04 16:41 | 27.07301 | 50.08659 | 23799 ft | 377 kts | 307° |
| 2026-05-04 16:41 | 27.12379 | 50.01966 | 23799 ft | 374 kts | 307° |
| 2026-05-04 16:42 | 27.17454 | 49.95290 | 23790 ft | 374 kts | 307° |
| 2026-05-04 16:43 | 27.20838 | 49.90841 | 23792 ft | 375 kts | 307° |
| 2026-05-04 16:43 | 27.24221 | 49.86377 | 23791 ft | 375 kts | 307° |
| 2026-05-04 16:43 | 27.25914 | 49.84145 | 23793 ft | 375 kts | 307° |
| 2026-05-04 16:44 | 27.32654 | 49.75245 | 23789 ft | 375 kts | 307° |
| 2026-05-04 16:45 | 27.36026 | 49.70777 | 23784 ft | 375 kts | 307° |
| 2026-05-04 16:46 | 27.41098 | 49.64054 | 23794 ft | 375 kts | 307° |
| 2026-05-04 16:46 | 27.44477 | 49.59572 | 23797 ft | 375 kts | 307° |
| 2026-05-04 16:47 | 27.47874 | 49.55109 | 23794 ft | 377 kts | 311° |
| 2026-05-04 16:47 | 27.51921 | 49.51310 | 23792 ft | 380 kts | 317° |
| 2026-05-04 16:48 | 27.58134 | 49.45758 | 23802 ft | 380 kts | 317° |
| 2026-05-04 16:48 | 27.60206 | 49.43901 | 23801 ft | 380 kts | 317° |
| 2026-05-04 16:49 | 27.64338 | 49.40190 | 23795 ft | 380 kts | 317° |
| 2026-05-04 16:49 | 27.68479 | 49.36466 | 23794 ft | 380 kts | 317° |
| 2026-05-04 16:50 | 27.72584 | 49.32766 | 23788 ft | 380 kts | 317° |
| 2026-05-04 16:50 | 27.76722 | 49.29047 | 23805 ft | 381 kts | 317° |
| 2026-05-04 16:51 | 27.80867 | 49.25318 | 23797 ft | 381 kts | 317° |
| 2026-05-04 16:51 | 27.82939 | 49.23451 | 23797 ft | 381 kts | 317° |
| 2026-05-04 16:51 | 27.87085 | 49.19722 | 23796 ft | 382 kts | 319° |
| 2026-05-04 16:52 | 27.91676 | 49.16596 | 23803 ft | 386 kts | 325° |
| 2026-05-04 16:52 | 27.94007 | 49.15074 | 23800 ft | 386 kts | 325° |
| 2026-05-04 16:53 | 27.98659 | 49.12027 | 23799 ft | 386 kts | 325° |
| 2026-05-04 16:53 | 28.05636 | 49.07442 | 23795 ft | 387 kts | 325° |
| 2026-05-04 16:54 | 28.07963 | 49.05915 | 23771 ft | 386 kts | 325° |
| 2026-05-04 16:55 | 28.17010 | 48.99964 | 22810 ft | 372 kts | 325° |
| 2026-05-04 16:55 | 28.21461 | 48.97027 | 22295 ft | 368 kts | 325° |
| 2026-05-04 16:56 | 28.25869 | 48.94115 | 21826 ft | 364 kts | 325° |
| 2026-05-04 16:56 | 28.32431 | 48.89773 | 21507 ft | 363 kts | 325° |
| 2026-05-04 16:57 | 28.34604 | 48.88335 | 21260 ft | 361 kts | 325° |
| 2026-05-04 16:57 | 28.38919 | 48.85477 | 20768 ft | 357 kts | 325° |
| 2026-05-04 16:58 | 28.45304 | 48.81252 | 20052 ft | 351 kts | 325° |
| 2026-05-04 16:58 | 28.47405 | 48.79860 | 19816 ft | 349 kts | 325° |
| 2026-05-04 16:59 | 28.51575 | 48.77084 | 19354 ft | 345 kts | 325° |
| 2026-05-04 17:00 | 28.59158 | 48.70661 | 18438 ft | 336 kts | 304° |
| 2026-05-04 17:00 | 28.63302 | 48.64418 | 17756 ft | 326 kts | 304° |
| 2026-05-04 17:01 | 28.66025 | 48.60334 | 17234 ft | 322 kts | 304° |
| 2026-05-04 17:01 | 28.68704 | 48.56302 | 16738 ft | 317 kts | 304° |
| 2026-05-04 17:02 | 28.71310 | 48.52382 | 16239 ft | 306 kts | 303° |
| 2026-05-04 17:02 | 28.74117 | 48.48830 | 15747 ft | 303 kts | 318° |
| 2026-05-04 17:03 | 28.75910 | 48.47547 | 15505 ft | 306 kts | 327° |
| 2026-05-04 17:03 | 28.77786 | 48.46401 | 15253 ft | 305 kts | 326° |
| 2026-05-04 17:03 | 28.81496 | 48.44108 | 14775 ft | 302 kts | 325° |
| 2026-05-04 17:04 | 28.85182 | 48.41816 | 14307 ft | 301 kts | 325° |
| 2026-05-04 17:04 | 28.88847 | 48.39532 | 13843 ft | 299 kts | 325° |
| 2026-05-04 17:05 | 28.92489 | 48.37258 | 13372 ft | 297 kts | 325° |
| 2026-05-04 17:05 | 28.96091 | 48.35013 | 12897 ft | 295 kts | 326° |
| 2026-05-04 17:06 | 28.99713 | 48.32756 | 13018 ft | 297 kts | 325° |
| 2026-05-04 17:06 | 29.01527 | 48.31625 | 13018 ft | 297 kts | 325° |
| 2026-05-04 17:07 | 29.05147 | 48.29368 | 12403 ft | 294 kts | 326° |
| 2026-05-04 17:07 | 29.06360 | 48.28613 | 12151 ft | 294 kts | 326° |
| 2026-05-04 17:07 | 29.08732 | 48.27136 | 11656 ft | 292 kts | 326° |
| 2026-05-04 17:07 | 29.10516 | 48.26022 | 11282 ft | 291 kts | 327° |
| 2026-05-04 17:08 | 29.12268 | 48.24927 | 11143 ft | 282 kts | 326° |
| 2026-05-04 17:08 | 29.15613 | 48.22842 | 10745 ft | 269 kts | 327° |
| 2026-05-04 17:08 | 29.17253 | 48.21815 | 10412 ft | 269 kts | 327° |
| 2026-05-04 17:09 | 29.18898 | 48.20784 | 10084 ft | 269 kts | 327° |
| 2026-05-04 17:09 | 29.20510 | 48.19777 | 9927 ft | 261 kts | 327° |
| 2026-05-04 17:09 | 29.22095 | 48.18785 | 9653 ft | 258 kts | 327° |
| 2026-05-04 17:10 | 29.25232 | 48.16814 | 8982 ft | 256 kts | 328° |
| 2026-05-04 17:10 | 29.29866 | 48.13903 | 7969 ft | 252 kts | 328° |
| 2026-05-04 17:11 | 29.31396 | 48.12943 | 7651 ft | 250 kts | 328° |
| 2026-05-04 17:11 | 29.32905 | 48.11997 | 7419 ft | 243 kts | 329° |
| 2026-05-04 17:11 | 29.35817 | 48.10183 | 6894 ft | 235 kts | 329° |
| 2026-05-04 17:12 | 29.37253 | 48.09290 | 6584 ft | 234 kts | 329° |
| 2026-05-04 17:12 | 29.40096 | 48.07500 | 5957 ft | 232 kts | 329° |
| 2026-05-04 17:13 | 29.44293 | 48.04795 | 5080 ft | 225 kts | 329° |
| 2026-05-04 17:14 | 29.48165 | 48.02279 | 4565 ft | 207 kts | 329° |
| 2026-05-04 17:14 | 29.49332 | 48.01364 | 4299 ft | 205 kts | 311° |
| 2026-05-04 17:14 | 29.49708 | 47.98344 | 3671 ft | 203 kts | 249° |
| 2026-05-04 17:15 | 29.49158 | 47.96852 | 3369 ft | 204 kts | 244° |
| 2026-05-04 17:15 | 29.47973 | 47.93882 | 2832 ft | 204 kts | 244° |
| 2026-05-04 17:16 | 29.46809 | 47.90913 | 2512 ft | 205 kts | 243° |
| 2026-05-04 17:16 | 29.43530 | 47.88324 | 2506 ft | 199 kts | 194° |
| 2026-05-04 17:17 | 29.42201 | 47.87888 | 2512 ft | 198 kts | 194° |
| 2026-05-04 17:17 | 29.38189 | 47.86635 | 2504 ft | 199 kts | 185° |
| 2026-05-04 17:18 | 29.36827 | 47.86770 | 2508 ft | 197 kts | 161° |
| 2026-05-04 17:18 | 29.34334 | 47.88060 | 2436 ft | 197 kts | 154° |
| 2026-05-04 17:19 | 29.31854 | 47.89383 | 2010 ft | 195 kts | 154° |
| 2026-05-04 17:19 | 29.29454 | 47.90662 | 1536 ft | 181 kts | 153° |
| 2026-05-04 17:20 | 29.27409 | 47.91750 | 1124 ft | 143 kts | 153° |
| 2026-05-04 17:20 | 29.25690 | 47.92663 | 806 ft | 132 kts | 152° |
| 2026-05-04 17:20 | 29.24866 | 47.93104 | 648 ft | 130 kts | 152° |
| 2026-05-04 17:21 | 29.23225 | 47.93984 | 311 ft | 130 kts | 153° |
| 2026-05-04 17:21 | 29.21763 | 47.94767 | 221 ft | 78 kts | 157° |
| 2026-05-04 17:22 | 29.21397 | 47.94960 | 216 ft | 46 kts | 154° |
| 2026-05-04 17:22 | 29.21226 | 47.95052 | 220 ft | 40 kts | 156° |
| 2026-05-04 17:23 | 29.20577 | 47.95458 | 214 ft | 36 kts | 111° |
| 2026-05-04 17:23 | 29.20474 | 47.95635 | 211 ft | 23 kts | 142° |
| 2026-05-04 17:23 | 29.20440 | 47.95726 | 209 ft | 7 kts | 306° |
| 2026-05-04 17:24 | 29.20524 | 47.95661 | 212 ft | 22 kts | 337° |
| 2026-05-04 17:24 | 29.21048 | 47.95391 | 213 ft | 25 kts | 334° |
| 2026-05-04 17:25 | 29.21193 | 47.95304 | 216 ft | 21 kts | 330° |
| 2026-05-04 17:25 | 29.21408 | 47.95187 | 216 ft | 19 kts | 333° |
| 2026-05-04 17:26 | 29.21808 | 47.94993 | 215 ft | 33 kts | 330° |
| 2026-05-04 17:26 | 29.22096 | 47.95334 | 192 ft | 26 kts | 60° |
| 2026-05-04 17:27 | 29.22266 | 47.95750 | 171 ft | 31 kts | 64° |
| 2026-05-04 17:27 | 29.22431 | 47.96155 | 170 ft | 23 kts | 65° |
| 2026-05-04 17:28 | 29.22566 | 47.96481 | 201 ft | 25 kts | 67° |
| 2026-05-04 17:29 | 29.22874 | 47.96544 | 209 ft | 15 kts | 333° |
| 2026-05-04 17:29 | 29.23047 | 47.96578 | 218 ft | 16 kts | 65° |
| 2026-05-04 17:30 | 29.23101 | 47.96729 | 224 ft | 0 kts | 66° |
| 2026-05-04 17:31 | 29.23126 | 47.96792 | 216 ft | 17 kts | 63° |
| 2026-05-04 17:31 | 29.23326 | 47.96787 | 212 ft | 10 kts | 335° |
| 2026-05-04 17:32 | 29.23433 | 47.96885 | 208 ft | 19 kts | 66° |
| 2026-05-04 17:33 | 29.23608 | 47.97335 | 170 ft | 18 kts | 65° |
| 2026-05-04 17:33 | 29.23663 | 47.97451 | 165 ft | 15 kts | 42° |
| 2026-05-04 17:34 | 29.23787 | 47.97405 | 165 ft | 4 kts | 338° |
| 2026-05-04 17:34 | 29.23817 | 47.97395 | 165 ft | 4 kts | 347° |
| 2026-05-04 17:35 | 29.23901 | 47.97271 | 167 ft | 4 kts | 258° |
| 2026-05-04 17:35 | 29.23902 | 47.97240 | 168 ft | 1 kts | 276° |
| 2026-05-04 17:35 | 29.23903 | 47.97236 | 168 ft | 0 kts | 282° |
| 2026-05-04 17:36 | 29.23905 | 47.97229 | 169 ft | 0 kts | 282° |